createdAt,value
2022-08-03T00:47:10.306Z,22.01
2022-08-03T00:49:39.571Z,23.14
2022-08-03T00:52:11.097Z,24.38
2022-08-03T00:54:39.627Z,23.38
2022-08-03T00:57:07.710Z,22.24
2022-08-03T00:59:35.516Z,21.41
2022-08-03T01:02:03.230Z,21.17
2022-08-03T01:04:30.906Z,22.69
2022-08-03T01:07:11.487Z,23.98
2022-08-03T01:10:09.130Z,22.91
2022-08-03T01:14:01.289Z,21.55
2022-08-03T01:16:17.766Z,21.60
2022-08-03T01:18:51.086Z,23.59
2022-08-03T01:21:40.509Z,24.55
2022-08-03T01:24:32.067Z,23.10
2022-08-03T01:27:11.733Z,21.75
2022-08-03T01:29:57.429Z,20.92
2022-08-03T01:33:01.116Z,20.83
2022-08-03T01:35:53.187Z,23.01
2022-08-03T01:38:35.794Z,24.14
2022-08-03T01:41:12.018Z,22.83
2022-08-03T01:43:58.919Z,21.68
2022-08-03T01:46:31.509Z,20.82
2022-08-03T01:49:00.258Z,20.69
2022-08-03T01:51:56.646Z,22.46
2022-08-03T01:54:29.002Z,23.76
2022-08-03T01:56:58.540Z,22.67
2022-08-03T01:59:27.850Z,21.59
2022-08-03T02:02:15.524Z,20.81
2022-08-03T02:04:46.824Z,20.70
2022-08-03T02:07:16.349Z,22.46
2022-08-03T02:09:46.945Z,23.74
2022-08-03T02:12:16.039Z,22.75
2022-08-03T02:14:45.915Z,21.60
2022-08-03T02:17:15.271Z,20.73
2022-08-03T02:19:44.005Z,20.50
2022-08-03T02:22:13.367Z,22.13
2022-08-03T02:24:41.264Z,23.45
2022-08-03T02:27:23.645Z,22.46
2022-08-03T02:29:56.563Z,21.22
2022-08-03T02:32:31.342Z,20.42
2022-08-03T02:35:01.120Z,20.30
2022-08-03T02:37:32.408Z,21.99
2022-08-03T02:40:02.999Z,23.31
2022-08-03T02:42:32.950Z,22.35
2022-08-03T02:45:04.483Z,21.21
2022-08-03T02:47:53.478Z,20.42
2022-08-03T02:50:21.929Z,20.36
2022-08-03T02:52:51.468Z,22.18
2022-08-03T02:55:21.290Z,23.47
2022-08-03T02:57:49.949Z,22.47
2022-08-03T03:00:19.380Z,21.31
2022-08-03T03:03:02.751Z,20.45
2022-08-03T03:05:54.926Z,20.33
2022-08-03T03:08:25.934Z,22.31
2022-08-03T03:11:01.078Z,23.55
2022-08-03T03:13:30.393Z,22.43
2022-08-03T03:16:01.764Z,21.28
2022-08-03T03:18:31.462Z,20.47
2022-08-03T03:21:00.782Z,20.31
2022-08-03T03:23:29.315Z,21.96
2022-08-03T03:25:58.655Z,23.27
2022-08-03T03:28:26.834Z,22.30
2022-08-03T03:30:54.974Z,21.16
2022-08-03T03:33:23.081Z,20.37
2022-08-03T03:35:51.935Z,20.23
2022-08-03T03:38:20.369Z,21.90
2022-08-03T03:40:48.541Z,23.30
2022-08-03T03:43:18.545Z,22.40
2022-08-03T03:45:47.813Z,21.25
2022-08-03T03:48:16.238Z,20.82
2022-08-03T03:50:44.768Z,22.34
2022-08-03T03:53:14.339Z,23.67
2022-08-03T03:55:59.456Z,22.75
2022-08-03T03:58:31.646Z,21.55
2022-08-03T04:01:00.046Z,20.81
2022-08-03T04:03:28.147Z,20.69
2022-08-03T04:06:14.519Z,22.37
2022-08-03T04:09:01.105Z,23.78
2022-08-03T04:11:35.140Z,22.62
2022-08-03T04:14:28.993Z,21.54
2022-08-03T04:17:03.401Z,21.45
2022-08-03T04:19:35.951Z,23.36
2022-08-03T04:22:10.487Z,24.70
2022-08-03T04:24:43.171Z,23.67
2022-08-03T04:27:14.153Z,22.49
2022-08-03T04:29:48.536Z,22.16
2022-08-03T04:32:18.197Z,23.87
2022-08-03T04:34:47.124Z,25.73
2022-08-03T04:37:47.845Z,26.53
2022-08-03T04:40:22.795Z,24.91
2022-08-03T04:42:53.733Z,23.76
2022-08-03T04:45:22.196Z,23.48
2022-08-03T04:47:50.607Z,25.11
2022-08-03T04:50:21.709Z,26.46
2022-08-03T04:52:49.739Z,25.54
2022-08-03T04:55:30.903Z,24.52
2022-08-03T04:58:00.079Z,23.79
2022-08-03T05:00:28.095Z,23.82
2022-08-03T05:02:55.845Z,25.62
2022-08-03T05:05:23.756Z,27.00
2022-08-03T05:07:51.932Z,26.19
2022-08-03T05:10:20.831Z,25.17
2022-08-03T05:12:48.989Z,24.46
2022-08-03T05:15:16.636Z,24.43
2022-08-03T05:17:44.299Z,26.19
2022-08-03T05:20:12.469Z,27.58
2022-08-03T05:22:40.118Z,26.72
2022-08-03T05:25:08.059Z,25.64
2022-08-03T05:27:36.159Z,24.89
2022-08-03T05:30:29.848Z,24.31
2022-08-03T05:32:53.555Z,24.38
2022-08-03T05:36:02.639Z,26.22
2022-08-03T05:38:09.304Z,27.44
2022-08-03T05:40:37.051Z,26.38
2022-08-03T05:43:04.890Z,25.30
2022-08-03T05:45:32.576Z,24.51
2022-08-03T05:48:00.329Z,24.32
2022-08-03T05:50:28.003Z,25.95
2022-08-03T05:52:59.467Z,27.27
2022-08-03T05:55:27.214Z,26.43
2022-08-03T05:57:55.271Z,25.45
2022-08-03T06:00:26.960Z,24.79
2022-08-03T06:02:54.745Z,24.69
2022-08-03T06:05:22.429Z,26.40
2022-08-03T06:07:50.046Z,27.77
2022-08-03T06:10:36.528Z,26.98
2022-08-03T06:13:05.554Z,25.85
2022-08-03T06:15:35.419Z,25.19
2022-08-03T06:18:03.190Z,25.15
2022-08-03T06:20:30.816Z,26.85
2022-08-03T06:23:00.790Z,28.19
2022-08-03T06:25:29.466Z,27.39
2022-08-03T06:27:57.224Z,26.49
2022-08-03T06:30:25.670Z,25.89
2022-08-03T06:32:53.384Z,25.51
2022-08-03T06:35:21.091Z,25.20
2022-08-03T06:37:50.345Z,24.93
2022-08-03T06:40:21.690Z,25.04
2022-08-03T06:42:52.221Z,26.92
2022-08-03T06:45:19.937Z,28.34
2022-08-03T06:47:47.671Z,27.61
2022-08-03T06:50:16.950Z,26.70
2022-08-03T06:52:45.757Z,26.09
2022-08-03T06:55:13.486Z,25.68
2022-08-03T06:57:41.091Z,25.37
2022-08-03T07:00:12.437Z,25.63
2022-08-03T07:02:40.896Z,27.59
2022-08-03T07:05:09.774Z,29.03
2022-08-03T07:07:38.227Z,28.30
2022-08-03T07:10:07.216Z,27.39
2022-08-03T07:12:35.534Z,26.74
2022-08-03T07:15:04.846Z,26.33
2022-08-03T07:17:34.767Z,26.06
2022-08-03T07:20:05.366Z,25.89
2022-08-03T07:22:33.627Z,25.79
2022-08-03T07:25:01.760Z,25.67
2022-08-03T07:27:30.452Z,25.58
2022-08-03T07:29:58.910Z,25.50
2022-08-03T07:32:28.559Z,25.44
2022-08-03T07:35:00.604Z,25.37
2022-08-03T07:37:29.166Z,25.32
2022-08-03T07:39:57.907Z,25.31
2022-08-03T07:42:26.655Z,25.33
2022-08-03T07:44:54.500Z,25.36
2022-08-03T07:47:25.056Z,25.40
2022-08-03T07:49:53.046Z,25.47
2022-08-03T07:52:39.905Z,25.59
2022-08-03T07:55:10.865Z,25.74
2022-08-03T07:57:39.423Z,25.90
2022-08-03T08:00:14.488Z,26.07
2022-08-03T08:02:43.558Z,26.30
2022-08-03T08:05:12.655Z,26.51
2022-08-03T08:07:40.902Z,26.70
2022-08-03T08:10:10.177Z,26.84
2022-08-03T08:12:39.434Z,26.95
2022-08-03T08:15:09.220Z,27.06
2022-08-03T08:17:52.310Z,27.23
2022-08-03T08:20:27.780Z,27.37
2022-08-03T08:23:01.963Z,27.49
2022-08-03T08:25:31.736Z,27.59
2022-08-03T08:28:22.362Z,27.66
2022-08-03T08:30:52.122Z,27.76
2022-08-03T08:33:23.581Z,27.83
2022-08-03T08:35:53.557Z,27.90
2022-08-03T08:38:22.121Z,28.03
2022-08-03T08:40:50.893Z,28.18
2022-08-03T08:43:18.833Z,28.34
2022-08-03T08:45:51.237Z,28.54
2022-08-03T08:48:24.982Z,28.80
2022-08-03T08:50:54.369Z,29.06
2022-08-03T08:53:27.674Z,29.34
2022-08-03T08:56:00.723Z,29.60
2022-08-03T08:58:30.990Z,29.85
2022-08-03T09:00:59.264Z,30.23
2022-08-03T09:03:29.600Z,30.64
2022-08-03T09:06:00.747Z,30.96
2022-08-03T09:08:32.359Z,31.17
2022-08-03T09:11:00.160Z,31.32
2022-08-03T09:13:29.314Z,31.39
2022-08-03T09:16:17.106Z,31.37
2022-08-03T09:18:49.846Z,31.23
2022-08-03T09:21:31.698Z,31.11
2022-08-03T09:24:04.319Z,31.00
2022-08-03T09:26:37.219Z,31.05
2022-08-03T09:29:13.764Z,31.16
2022-08-03T09:31:47.129Z,31.29
2022-08-03T09:34:17.404Z,31.60
2022-08-03T09:36:49.974Z,32.55
2022-08-03T09:39:40.558Z,34.09
2022-08-03T09:42:23.543Z,36.09
2022-08-03T09:44:52.207Z,38.09
2022-08-03T09:47:30.874Z,39.89
2022-08-03T09:50:09.377Z,41.46
2022-08-03T09:52:49.919Z,42.90
2022-08-03T09:56:34.031Z,44.16
2022-08-03T09:58:14.420Z,45.11
2022-08-03T10:00:59.102Z,45.76
2022-08-03T10:03:32.142Z,46.21
2022-08-03T10:06:13.972Z,46.39
2022-08-03T10:08:41.638Z,46.28
2022-08-03T10:11:09.336Z,46.75
2022-08-03T10:13:38.067Z,47.00
2022-08-03T10:16:22.695Z,47.11
2022-08-03T10:18:52.881Z,48.21
2022-08-03T10:21:21.821Z,49.24
2022-08-03T10:23:51.036Z,49.61
2022-08-03T10:26:22.739Z,49.44
2022-08-03T10:28:53.563Z,49.94
2022-08-03T10:31:22.531Z,50.79
2022-08-03T10:33:53.133Z,51.71
2022-08-03T10:36:27.441Z,51.06
2022-08-03T10:38:57.228Z,49.39
2022-08-03T10:41:31.143Z,48.34
2022-08-03T10:44:05.555Z,47.66
2022-08-03T10:46:34.623Z,46.77
2022-08-03T10:49:03.355Z,46.80
2022-08-03T10:51:52.757Z,47.07
2022-08-03T10:54:57.942Z,47.75
2022-08-03T10:57:49.747Z,48.60
2022-08-03T11:00:23.309Z,49.11
2022-08-03T11:03:06.303Z,49.57
2022-08-03T11:05:42.802Z,48.97
2022-08-03T11:08:19.644Z,47.69
2022-08-03T11:10:49.208Z,45.92
2022-08-03T11:13:19.325Z,44.22
2022-08-03T11:15:48.913Z,42.71
2022-08-03T11:18:17.554Z,41.49
2022-08-03T11:20:56.950Z,40.51
2022-08-03T11:24:03.321Z,39.62
2022-08-03T11:26:31.754Z,38.67
2022-08-03T11:29:29.485Z,38.10
2022-08-03T11:31:57.475Z,38.40
2022-08-03T11:34:25.323Z,39.19
2022-08-03T11:37:23.312Z,40.62
2022-08-03T11:39:54.511Z,42.61
2022-08-03T11:42:22.112Z,44.06
2022-08-03T11:44:51.407Z,44.86
2022-08-03T11:47:21.202Z,45.07
2022-08-03T11:49:50.947Z,45.68
2022-08-03T11:52:19.570Z,46.40
2022-08-03T11:54:56.748Z,46.38
2022-08-03T11:59:01.773Z,46.59
2022-08-03T12:00:29.117Z,46.17
2022-08-03T12:02:59.466Z,45.19
2022-08-03T12:05:37.769Z,44.07
2022-08-03T12:08:08.074Z,42.90
2022-08-03T12:10:37.268Z,41.87
2022-08-03T12:14:45.506Z,40.90
2022-08-03T12:15:59.170Z,40.18
2022-08-03T12:18:27.094Z,40.36
2022-08-03T12:21:08.438Z,40.87
2022-08-03T12:23:38.008Z,40.69
2022-08-03T12:26:09.135Z,40.48
2022-08-03T12:28:38.540Z,40.29
2022-08-03T12:31:09.376Z,39.82
2022-08-03T12:33:55.897Z,39.30
2022-08-03T12:36:24.127Z,38.80
2022-08-03T12:39:07.115Z,38.36
2022-08-03T12:41:36.832Z,37.98
2022-08-03T12:44:07.139Z,37.82
2022-08-03T12:46:37.065Z,38.25
2022-08-03T12:49:11.311Z,38.97
2022-08-03T12:52:05.356Z,39.62
2022-08-03T12:54:36.120Z,39.66
2022-08-03T12:57:15.574Z,39.28
2022-08-03T12:59:52.814Z,38.69
2022-08-03T13:02:26.520Z,38.01
2022-08-03T13:04:55.136Z,37.31
2022-08-03T13:07:23.477Z,37.20
2022-08-03T13:09:53.653Z,37.75
2022-08-03T13:12:24.290Z,38.42
2022-08-03T13:14:55.696Z,39.09
2022-08-03T13:17:24.504Z,39.70
2022-08-03T13:19:53.352Z,40.08
2022-08-03T13:22:23.730Z,40.40
2022-08-03T13:24:53.567Z,40.83
2022-08-03T13:28:04.863Z,41.16
2022-08-03T13:30:09.756Z,41.31
2022-08-03T13:32:37.508Z,41.34
2022-08-03T13:35:05.891Z,41.32
2022-08-03T13:37:33.810Z,41.08
2022-08-03T13:40:04.744Z,40.81
2022-08-03T13:42:35.331Z,40.57
2022-08-03T13:45:04.715Z,40.38
2022-08-03T13:47:32.657Z,40.21
2022-08-03T13:50:02.778Z,40.00
2022-08-03T13:52:33.291Z,39.86
2022-08-03T13:55:02.379Z,39.71
2022-08-03T13:58:04.969Z,39.61
2022-08-03T14:00:27.595Z,39.57
2022-08-03T14:03:12.205Z,39.46
2022-08-03T14:05:42.848Z,39.35
2022-08-03T14:08:11.165Z,39.21
2022-08-03T14:10:44.066Z,38.98
2022-08-03T14:13:16.012Z,38.79
2022-08-03T14:15:49.917Z,38.71
2022-08-03T14:18:28.839Z,38.57
2022-08-03T14:21:06.882Z,38.41
2022-08-03T14:23:37.723Z,38.27
2022-08-03T14:26:09.527Z,38.18
2022-08-03T14:28:37.085Z,38.04
2022-08-03T14:32:10.193Z,37.89
2022-08-03T14:33:52.750Z,37.56
2022-08-03T14:36:20.457Z,37.30
2022-08-03T14:38:48.241Z,37.14
2022-08-03T14:41:20.069Z,37.07
2022-08-03T14:44:00.493Z,36.99
2022-08-03T14:46:29.952Z,36.92
2022-08-03T14:50:33.447Z,36.88
2022-08-03T14:51:53.352Z,36.86
2022-08-03T14:54:22.753Z,36.80
2022-08-03T14:56:50.877Z,36.70
2022-08-03T14:59:18.516Z,36.62
2022-08-03T15:02:06.231Z,36.46
2022-08-03T15:04:33.933Z,36.32
2022-08-03T15:07:01.628Z,36.21
2022-08-03T15:09:29.343Z,36.09
2022-08-03T15:11:57.052Z,35.97
2022-08-03T15:14:32.371Z,35.86
2022-08-03T15:17:02.500Z,35.78
2022-08-03T15:20:03.242Z,35.71
2022-08-03T15:22:20.756Z,35.61
2022-08-03T15:24:52.787Z,35.48
2022-08-03T15:27:20.665Z,35.39
2022-08-03T15:30:09.460Z,35.34
2022-08-03T15:32:36.441Z,35.26
2022-08-03T15:35:04.414Z,35.15
2022-08-03T15:37:32.064Z,35.09
2022-08-03T15:40:00.931Z,35.04
2022-08-03T15:42:30.177Z,34.99
2022-08-03T15:44:58.330Z,34.91
2022-08-03T15:47:26.607Z,34.84
2022-08-03T15:49:54.327Z,34.79
2022-08-03T15:52:22.057Z,34.73
2022-08-03T15:54:49.763Z,34.69
2022-08-03T15:57:17.518Z,34.62
2022-08-03T15:59:45.208Z,34.57
2022-08-03T16:02:13.225Z,34.51
2022-08-03T16:04:40.868Z,34.43
2022-08-03T16:07:08.983Z,34.31
2022-08-03T16:09:43.861Z,34.21
2022-08-03T16:12:16.565Z,34.11
2022-08-03T16:14:52.857Z,34.00
2022-08-03T16:17:22.465Z,33.85
2022-08-03T16:19:54.842Z,33.72
2022-08-03T16:22:24.268Z,33.57
2022-08-03T16:24:55.662Z,33.43
2022-08-03T16:27:55.787Z,33.31
2022-08-03T16:30:16.598Z,33.16
2022-08-03T16:32:45.851Z,33.03
2022-08-03T16:35:19.194Z,32.92
2022-08-03T16:37:54.610Z,32.77
2022-08-03T16:40:25.272Z,32.58
2022-08-03T16:42:53.209Z,32.41
2022-08-03T16:45:20.850Z,32.25
2022-08-03T16:48:01.299Z,32.09
2022-08-03T16:50:32.917Z,31.91
2022-08-03T16:53:00.757Z,31.75
2022-08-03T16:55:48.477Z,31.59
2022-08-03T16:58:17.954Z,31.39
2022-08-03T17:00:52.369Z,31.20
2022-08-03T17:03:24.843Z,31.02
2022-08-03T17:05:53.289Z,30.84
2022-08-03T17:08:27.491Z,30.66
2022-08-03T17:10:56.310Z,30.49
2022-08-03T17:13:39.468Z,30.33
2022-08-03T17:16:10.301Z,30.14
2022-08-03T17:18:47.280Z,29.94
2022-08-03T17:21:16.118Z,29.73
2022-08-03T17:23:58.645Z,29.52
2022-08-03T17:26:30.361Z,29.29
2022-08-03T17:29:12.515Z,29.09
2022-08-03T17:31:48.837Z,28.90
2022-08-03T17:34:19.377Z,28.74
2022-08-03T17:37:03.804Z,28.57
2022-08-03T17:39:57.655Z,28.40
2022-08-03T17:42:30.466Z,28.20
2022-08-03T17:45:07.649Z,27.98
2022-08-03T17:47:41.332Z,27.80
2022-08-03T17:50:25.378Z,27.63
2022-08-03T17:53:06.818Z,27.45
2022-08-03T17:55:56.441Z,27.29
2022-08-03T17:58:41.446Z,27.11
2022-08-03T18:02:00.554Z,26.93
2022-08-03T18:04:29.736Z,26.73
2022-08-03T18:06:59.856Z,26.58
2022-08-03T18:10:03.976Z,26.44
2022-08-03T18:12:27.386Z,26.26
2022-08-03T18:15:01.611Z,26.11
2022-08-03T18:17:58.334Z,25.96
2022-08-03T18:20:32.774Z,25.83
2022-08-03T18:23:07.197Z,25.69
2022-08-03T18:25:38.138Z,25.54
2022-08-03T18:28:14.622Z,25.41
2022-08-03T18:30:53.283Z,25.30
2022-08-03T18:34:18.285Z,25.16
2022-08-03T18:36:17.575Z,25.03
2022-08-03T18:38:48.182Z,24.92
2022-08-03T18:41:30.646Z,24.82
2022-08-03T18:44:06.870Z,24.70
2022-08-03T18:46:41.234Z,24.60
2022-08-03T18:49:47.545Z,24.50
2022-08-03T18:52:20.367Z,25.12
2022-08-03T18:55:21.562Z,27.31
2022-08-03T18:58:27.164Z,28.56
2022-08-03T19:01:00.914Z,27.30
2022-08-03T19:03:43.067Z,26.42
2022-08-03T19:06:20.047Z,25.81
2022-08-03T19:09:04.494Z,25.35
2022-08-03T19:12:13.336Z,24.98
2022-08-03T19:14:34.825Z,24.66
2022-08-03T19:17:08.629Z,24.41
2022-08-03T19:19:43.361Z,24.60
2022-08-03T19:22:16.199Z,26.56
2022-08-03T19:24:46.030Z,27.98
2022-08-03T19:27:16.141Z,27.16
2022-08-03T19:29:59.480Z,26.17
2022-08-03T19:32:30.638Z,25.42
2022-08-03T19:35:00.285Z,24.96
2022-08-03T19:37:33.295Z,24.57
2022-08-03T19:40:12.553Z,24.25
2022-08-03T19:42:45.674Z,24.01
2022-08-03T19:45:21.489Z,24.21
2022-08-03T19:47:56.509Z,26.17
2022-08-03T19:50:26.529Z,27.57
2022-08-03T19:52:58.436Z,26.68
2022-08-03T19:55:28.823Z,25.69
2022-08-03T19:58:03.202Z,24.94
2022-08-03T20:00:37.008Z,24.42
2022-08-03T20:03:23.341Z,24.01
2022-08-03T20:05:54.161Z,24.17
2022-08-03T20:08:22.767Z,26.03
2022-08-03T20:10:51.251Z,27.32
2022-08-03T20:13:19.752Z,26.41
2022-08-03T20:15:47.678Z,25.29
2022-08-03T20:18:21.253Z,24.47
2022-08-03T20:20:52.593Z,23.90
2022-08-03T20:23:21.124Z,23.90
2022-08-03T20:25:58.571Z,25.65
2022-08-03T20:28:32.785Z,26.98
2022-08-03T20:31:02.081Z,26.03
2022-08-03T20:33:48.703Z,25.01
2022-08-03T20:36:18.665Z,24.26
2022-08-03T20:38:48.164Z,23.77
2022-08-03T20:41:17.419Z,23.81
2022-08-03T20:43:46.240Z,25.63
2022-08-03T20:46:30.007Z,27.00
2022-08-03T20:49:05.308Z,25.96
2022-08-03T20:51:49.895Z,24.96
2022-08-03T20:54:30.964Z,24.22
2022-08-03T20:57:04.472Z,23.72
2022-08-03T20:59:50.434Z,23.36
2022-08-03T21:02:29.588Z,23.08
2022-08-03T21:05:03.181Z,23.32
2022-08-03T21:08:05.037Z,25.34
2022-08-03T21:10:38.079Z,26.68
2022-08-03T21:13:31.696Z,25.68
2022-08-03T21:16:12.647Z,24.65
2022-08-03T21:18:50.486Z,24.05
2022-08-03T21:21:20.820Z,23.65
2022-08-03T21:23:54.550Z,23.34
2022-08-03T21:26:25.367Z,23.10
2022-08-03T21:28:55.256Z,22.91
2022-08-03T21:31:26.223Z,22.75
2022-08-03T21:34:04.632Z,22.60
2022-08-03T21:36:35.910Z,22.45
2022-08-03T21:39:06.966Z,22.76
2022-08-03T21:41:36.502Z,24.74
2022-08-03T21:44:05.131Z,26.24
2022-08-03T21:46:38.347Z,25.51
2022-08-03T21:50:05.455Z,24.57
2022-08-03T21:52:05.192Z,23.86
2022-08-03T21:54:41.996Z,23.43
2022-08-03T21:57:19.257Z,23.11
2022-08-03T21:59:55.804Z,22.87
2022-08-03T22:02:30.138Z,22.64
2022-08-03T22:05:00.035Z,22.83
2022-08-03T22:07:29.258Z,24.67
2022-08-03T22:09:59.441Z,26.18
2022-08-03T22:12:29.673Z,25.43
2022-08-03T22:15:00.831Z,24.48
2022-08-03T22:17:54.686Z,23.83
2022-08-03T22:20:20.502Z,23.33
2022-08-03T22:22:55.470Z,23.01
2022-08-03T22:25:31.497Z,22.73
2022-08-03T22:28:04.558Z,22.51
2022-08-03T22:30:33.335Z,22.70
2022-08-03T22:33:04.115Z,24.54
2022-08-03T22:35:44.191Z,26.04
2022-08-03T22:38:18.148Z,25.17
2022-08-03T22:40:51.153Z,24.24
2022-08-03T22:43:27.857Z,23.59
2022-08-03T22:46:10.303Z,23.11
2022-08-03T22:48:41.719Z,22.76
2022-08-03T22:51:09.653Z,22.51
2022-08-03T22:53:40.731Z,22.31
2022-08-03T22:56:09.018Z,22.55
2022-08-03T22:58:36.798Z,24.41
2022-08-03T23:01:09.825Z,25.89
2022-08-03T23:04:00.481Z,25.11
2022-08-03T23:06:37.713Z,24.05
2022-08-03T23:09:11.616Z,23.40
2022-08-03T23:11:45.317Z,22.94
2022-08-03T23:14:15.589Z,22.59
2022-08-03T23:16:44.798Z,22.32
2022-08-03T23:19:17.334Z,22.49
2022-08-03T23:22:03.000Z,24.48
2022-08-03T23:24:36.600Z,25.92
2022-08-03T23:27:05.050Z,25.00
2022-08-03T23:29:35.455Z,24.05
2022-08-03T23:32:05.066Z,23.40
2022-08-03T23:34:51.949Z,22.93
2022-08-03T23:37:22.657Z,22.53
2022-08-03T23:39:52.624Z,22.25
2022-08-03T23:42:21.749Z,22.39
2022-08-03T23:44:54.732Z,24.20
2022-08-03T23:47:23.180Z,25.64
2022-08-03T23:49:51.561Z,24.80
2022-08-03T23:52:57.510Z,23.82
2022-08-03T23:55:56.015Z,22.97
2022-08-03T23:58:50.193Z,22.40
